KGLS/GLS METAR and TAF weather

Enter ICAO airport designator
Station Type Date Time Source
KGLS METAR 2019/12/06 23:52 UTC NOAA

KGLS 062352Z AUTO 35014KT 10SM CLR 21/13 A3013 RMK AO2 SLP203 T02060128 10261 20206 53020


Station Type Date Time Source
KGLS Decoded METAR 2019/12/06 23:52 UTC NOAA

SCHOLES FIELD, TX, United States (KGLS) 29-16N 094-52W 6M
Dec 06, 2019 - 06:52 PM EST / 2019.12.06 2352 UTC
Wind: from the N (350 degrees) at 16 MPH (14 KT):0
Visibility: 10 mile(s):0
Sky conditions: clear
Temperature: 69.1 F (20.6 C)
Dew Point: 55.0 F (12.8 C)
Relative Humidity: 60%
Pressure (altimeter): 30.13 in. Hg (1020 hPa)
Pressure tendency: 0.06 inches (2.0 hPa) higher than three hours ago
ob: KGLS 062352Z AUTO 35014KT 10SM CLR 21/13 A3013 RMK AO2 SLP203 T02060128 10261 20206 53020
cycle: 0

Station Type Date Time Source
KGLS TAF 2019/12/06 23:54 UTC NOAA

TAF
AMD KGLS 062246Z 0623/0718 32012KT P6SM SKC
FM070400 34014KT P6SM FEW120
FM071000 36011KT P6SM BKN020

Example: see airport list